San Francisco, California
Traffic Map
Current Weather Conditions
San Francisco, California
Broken Clouds
Broken Clouds
17°
Feels Like: 17°
Wind Chill: 17° Ceiling: 900
Heat Index: 17° Visibility: 10mi
Dew Point: 16° Wind: 14mph
Humidity: 93% Direction: 280° (W)
Pressure: 30.28in Gusts: 0mph
Raw Report DataKSFO 212056Z 28012KT 10SM FEW006 BKN009 BKN180 17/16 A3028 RMK AO2 SLP252 60000 T01720161 57015
Traffic Incident Summary
Active as of:
Severity:
Category:
InformationThere was an issue retrieving the traffic information for this location. Please try a different location or try again shortly.
Advertisements
Track Severe Weather on mobile